Saint Louis, MO (63145)

6:35 AM CDT on May 28, 2017 (GMT -0500)
Lambert-Saint Louis International | | Change Station
Active Advisory: Flood Warning

Elev 604 ft 38.75 °N, 90.36 °W | Updated 44 minutes ago

Overcast
Overcast
64 °F
Feels Like 64 °F
N
5
Wind Variable Wind from WSW

Today
High -- | Low -- °F
--% Chance of Precip.
Yesterday
High -- | Low -- °F
Precip. -- in
Pressure 29.73 in
Visibility 10.0 miles
Clouds Few 15000 ft
Overcast 25000 ft
Dew Point 60 °F
Humidity 87%
Rainfall 0.00 in
Snow Depth Not available.
5:40 AM 8:17 PM
Waxing Crescent, 10% visible
METAR KSTL 281051Z 24004KT 10SM FEW150 OVC250 18/16 A2975 RMK AO2 SLP067 T01780156
Pressure 29.73 in
Visibility 10.0 miles
Clouds Few 15000 ft
Overcast 25000 ft
Dew Point 60 °F
Humidity 87%
Rainfall 0.00 in
Snow Depth Not available.
5:40 AM 8:17 PM
Waxing Crescent, 10% visible
METAR KSTL 281051Z 24004KT 10SM FEW150 OVC250 18/16 A2975 RMK AO2 SLP067 T01780156

Get Your Daily Forecast Email!

Thanks for signing up!

Be on the lookout for a verification email in your inbox.

You'll start receiving severe weather alerts in your inbox..

×

10-Day Weather Forecast

Almanac

Astronomy

May. 28, 2017 Rise Set
Actual Time
Civil Twilight
Nautical Twilight
Astronomical Twilight
Moon
Length of Visible Light
Length of Day
Tomorrow will be .
, % of the Moon is Illuminated

Today's Extremes

State Highs State Lows

Community

WunderPhotos

Category 6

Welcome to Category 6. This is the collective home for Weather Underground's featured writeups by Dr. Jeff Masters (right), Bob Henson (left), Chris Burt, and other regular contributors.

Nearby

Air Quality

  Air Quality AQ Index Pollutant
Not available.

Snow Depth

Station Depth Elevation

Earthquake Activity

City Distance Mag. Time & Date
Minimum magnitude displayed is 2.5.

Coastal Water Temperatures

Place Temperature

Stations

Nearby Weather Stations

Station Location Temp. Windchill Dew Point Humidity Wind Precip. Elev Updated Type
                   

Watches & Warnings

Flood Warning
Issued: 8:27 PM CDT May. 27, 2017 – National Weather Service

The Flood Warning continues for
the Meramec river near Arnold
* until further notice.
* At 8:00 PM Saturday the stage was 27.3 feet.
* Flood stage is 24.0 feet.
* Minor flooding is forecast.
* The river is forecast to continue falling to a stage of 25.8 feet
by Monday morning.


                   Fld latest 7 a.M. Forecast
location stg obs stg 05/28 05/29 05/30 05/31 06/01

Meramec river
Arnold 24.0 27.27 26.8 25.8 25.6 25.6 25.1




Lat... Lon 3851 9043 3851 9039 3845 9032 3841 9034
     3845 9043